EDT,Max TemperatureF,Mean TemperatureF,Min TemperatureF,Max Dew PointF,MeanDew PointF,Min DewpointF,Max Humidity, Mean Humidity, Min Humidity, Max Sea Level PressureIn, Mean Sea Level PressureIn, Min Sea Level PressureIn, Max VisibilityMiles, Mean VisibilityMiles, Min VisibilityMiles, Max Wind SpeedMPH, Mean Wind SpeedMPH, Max Gust SpeedMPH,PrecipitationIn, CloudCover, Events, WindDirDegrees
2013-8-1,88,80,71,72,70,68,93,76,59,30.03,29.97,29.89,10,8,5,13,6,23,T,6,Rain-Thunderstorm,257
2013-8-2,90,79,67,68,65,61,93,66,38,30.01,29.97,29.91,10,8,5,10,2,26,0.00,0,,291
2013-8-3,88,77,66,72,68,66,100,75,50,30.04,30.01,29.99,10,8,4,14,4,17,0.00,0,,283
2013-8-4,89,81,72,72,70,66,93,70,47,30.04,29.98,29.93,10,8,5,17,8,25,0.00,1,,315
2013-8-5,87,78,69,71,67,64,84,68,51,30.07,29.99,29.95,10,8,7,8,3,20,0.00,3,,348
2013-8-6,90,81,72,73,70,65,93,70,47,30.02,29.97,29.93,10,8,4,12,3,14,0.19,4,Rain-Thunderstorm,284
2013-8-7,83,79,74,75,74,72,100,93,85,30.08,30.01,29.95,7,4,1,9,2,10,0.59,6,Rain,151
2013-8-8,82,78,73,75,73,72,94,84,74,30.09,30.04,29.99,8,5,0,20,2,22,0.98,6,Fog-Rain-Thunderstorm,187
2013-8-9,89,81,73,74,72,70,100,78,55,30.12,30.04,29.99,10,8,2,12,3,13,0.00,2,,197
2013-8-10,89,81,72,75,72,70,100,79,57,30.15,30.09,30.05,10,9,5,22,3,30,0.04,2,Rain-Thunderstorm,214
2013-8-11,90,81,71,72,71,68,100,76,52,30.20,30.11,30.04,10,9,5,13,4,21,0.00,2,,254
2013-8-12,88,80,72,75,72,71,100,80,59,30.11,30.05,29.99,10,9,2,20,4,25,0.32,2,Rain-Thunderstorm,262
2013-8-13,87,79,71,72,71,70,100,79,57,30.03,29.96,29.87,10,8,2,12,6,29,0.05,4,Rain,256
2013-8-14,84,77,70,72,70,67,93,76,58,30.02,29.93,29.86,10,7,2,14,3,16,0.47,4,Rain,303
2013-8-15,74,71,67,66,62,56,90,74,57,30.08,30.04,29.99,10,8,6,14,6,23,0.00,8,,78
2013-8-16,67,65,62,63,61,57,93,83,73,30.13,30.08,30.02,10,8,2,14,5,22,0.16,8,Rain,86
2013-8-17,66,64,61,65,62,59,100,94,87,30.16,30.12,30.09,10,6,2,10,5,18,0.15,8,Rain,84
2013-8-18,75,70,65,70,68,64,100,90,79,30.21,30.15,30.10,10,6,1,8,2,13,1.32,7,Rain,60
2013-8-19,82,76,69,72,70,68,100,85,69,30.18,30.12,30.04,10,6,1,8,3,13,0.43,7,Rain,83
2013-8-20,83,77,71,72,70,69,93,81,69,30.20,30.13,30.06,10,10,8,8,3,17,0.01,7,Rain,91
2013-8-21,81,75,68,73,70,66,100,87,74,30.26,30.19,30.10,10,7,1,12,2,18,1.69,5,Rain-Thunderstorm,102
2013-8-22,89,79,68,72,69,67,100,75,50,30.19,30.11,30.04,10,7,0,23,2,31,1.20,3,Fog-Rain-Thunderstorm,120
2013-8-23,89,79,68,72,70,67,100,75,50,30.10,30.04,29.96,10,6,0,14,4,18,0.00,1,Fog,293
2013-8-24,83,76,69,72,67,64,93,76,58,30.23,30.13,30.00,10,9,7,12,5,20,0.00,4,Thunderstorm,92
2013-8-25,82,73,64,66,61,59,87,68,49,30.35,30.28,30.23,10,10,9,12,4,16,0.00,3,,84
2013-8-26,83,71,59,63,60,57,97,70,43,30.30,30.23,30.15,10,10,7,9,2,15,0.00,0,,88
2013-8-27,87,74,61,68,64,60,100,74,48,30.17,30.09,30.03,10,8,6,9,2,13,0.00,1,,321
2013-8-28,91,78,65,71,67,64,100,73,46,30.07,30.01,29.96,8,6,2,10,2,32,0.00,1,,284
2013-8-29,92,82,71,72,70,69,93,71,49,29.99,29.95,29.90,9,7,4,15,7,21,0.00,0,,307
2013-8-30,86,80,74,74,73,71,94,80,65,30.01,29.95,29.91,8,6,4,8,3,14,0.00,4,,97
2013-8-31,91,81,71,74,72,70,100,76,52,30.00,29.92,29.86,8,5,2,18,2,24,0.05,2,Rain,183